GW0821 Weather Reports


Display with metric or nautical units.
time (UTC)temp
F
wind
direction
speed
MPH
gust
MPH
rain 1hr
in
rain 24hr
in
rain mn
in
humidity
%
barometer
mb
20220522130052 95 120 5.0 11.0 0.00 0.00 0.00 12 1011.3
20220522124546 95 120 3.0 9.0 0.00 0.00 0.00 12 1011.4
20220522123044 94 120 3.0 13.0 0.00 0.00 0.00 12 1011.7
20220522121549 93 120 5.0 20.0 0.00 0.00 0.00 12 1012.0
20220522120051 95 120 4.0 9.0 0.00 0.00 0.00 13 1012.0
20220522114609 94 120 8.0 15.0 0.00 0.00 0.00 13 1012.0
20220522113041 94 120 4.0 11.0 0.00 0.00 0.00 13 1012.1
20220522111549 95 120 3.0 11.0 0.00 0.00 0.00 13 1012.2
20220522110043 95 120 2.0 7.0 0.00 0.00 0.00 14 1012.2
20220522104548 92 120 2.0 12.0 0.00 0.00 0.00 15 1012.3
20220522103043 91 120 3.0 14.0 0.00 0.00 0.00 15 1012.6
20220522101541 91 120 4.0 13.0 0.00 0.00 0.00 16 1012.7
20220522100048 91 120 3.0 8.0 0.00 0.00 0.00 17 1012.7
20220522094556 91 120 4.0 10.0 0.00 0.00 0.00 19 1012.6
20220522093042 90 120 4.0 11.0 0.00 0.00 0.00 20 1012.7
20220522091551 90 120 1.0 4.0 0.00 0.00 0.00 21 1012.7
20220522090049 87 0 1.0 3.0 0.00 0.00 0.00 25 1012.9
20220522084554 85 120 2.0 3.0 0.00 0.00 0.00 26 1013.2
20220522083053 82 0 0.0 2.0 0.00 0.00 0.00 30 1013.3
20220522081556 79 0 0.0 1.0 0.00 0.00 0.00 35 1013.5
20220522080044 76 120 1.0 2.0 0.00 0.00 0.00 40 1013.7
20220522074539 74 120 0.0 1.0 0.00 0.00 0.00 43 1013.8
20220522073052 73 0 0.0 1.0 0.00 0.00 0.00 43 1014.0
20220522071554 71 0 0.0 1.0 0.00 0.00 0.00 47 1014.1
20220522070047 69 120 1.0 4.0 0.00 0.00 0.00 49 1014.2
20220522064554 68 0 0.0 2.0 0.00 0.00 0.00 51 1014.3
20220522063041 65 120 2.0 5.0 0.00 0.00 0.00 54 1014.3
20220522061541 64 120 2.0 5.0 0.00 0.00 0.00 56 1014.3
20220522060040 63 121 1.0 7.0 0.00 0.00 0.00 57 1014.6
20220522054553 60 0 0.0 2.0 0.00 0.00 0.00 61 1014.5
20220522053048 58 0 0.0 1.0 0.00 0.00 0.00 62 1014.6
20220522051547 57 0 0.0 1.0 0.00 0.00 0.00 62 1014.7
20220522050048 57 0 0.0 1.0 0.00 0.00 0.00 60 1014.9
20220522044602 57 0 0.0 0.0 0.00 0.00 0.00 62 1014.9
20220522043047 56 0 0.0 1.0 0.00 0.00 0.00 63 1014.9
20220522041548 57 0 0.0 0.0 0.00 0.00 0.00 62 1015.0
20220522040101 57 0 0.0 0.0 0.00 0.00 0.00 62 1015.1
20220522034552 57 0 0.0 1.0 0.00 0.00 0.00 61 1015.1
20220522033055 57 0 0.0 1.0 0.00 0.00 0.00 60 1015.0
20220522031548 57 0 0.0 0.0 0.00 0.00 0.00 60 1015.0
20220522030048 58 0 0.0 1.0 0.00 0.00 0.00 58 1015.2
20220522024540 58 0 0.0 0.0 0.00 0.00 0.00 59 1015.3
20220522023050 58 0 0.0 0.0 0.00 0.00 0.00 59 1015.4
20220522021546 58 0 0.0 0.0 0.00 0.00 0.00 58 1015.5
20220522020054 59 0 0.0 0.0 0.00 0.00 0.00 59 1015.7
20220522014548 59 0 0.0 0.0 0.00 0.00 0.00 57 1015.8
20220522013038 60 0 0.0 0.0 0.00 0.00 0.00 57 1015.9
20220522011541 60 0 0.0 0.0 0.00 0.00 0.00 58 1016.0
20220522010045 60 0 0.0 0.0 0.00 0.00 0.00 57 1016.1
20220522004549 61 0 0.0 0.0 0.00 0.00 0.00 56 1016.3
20220522003106 61 0 0.0 0.0 0.00 0.00 0.00 55 1016.4
20220522001544 62 0 0.0 0.0 0.00 0.00 0.00 55 1016.6
20220522000046 62 0 0.0 0.0 0.00 0.00 0.00 54 1016.8
20220521234550 62 0 0.0 1.0 0.00 0.00 0.00 54 1016.8
20220521233120 63 0 0.0 0.0 0.00 0.00 0.00 54 1017.0
20220521231549 63 0 0.0 0.0 0.00 0.00 0.00 53 1017.1
20220521230053 64 0 0.0 1.0 0.00 0.00 0.00 52 1017.1
20220521224548 65 0 0.0 0.0 0.00 0.00 0.00 52 1017.3
20220521223047 66 0 0.0 0.0 0.00 0.00 0.00 50 1017.4
20220521221550 66 0 0.0 0.0 0.00 0.00 0.00 50 1017.5
20220521220045 67 0 0.0 0.0 0.00 0.00 0.00 49 1017.6
20220521214545 68 0 0.0 0.0 0.00 0.00 0.00 47 1017.6
20220521213054 69 0 0.0 0.0 0.00 0.00 0.00 46 1017.6
20220521211545 69 0 0.0 0.0 0.00 0.00 0.00 45 1017.7
20220521210051 70 0 0.0 1.0 0.00 0.00 0.00 45 1017.7
20220521204544 71 0 0.0 1.0 0.00 0.00 0.00 42 1017.7
20220521203044 72 0 0.0 0.0 0.00 0.00 0.00 41 1017.7
20220521201544 73 0 0.0 0.0 0.00 0.00 0.00 41 1017.6
20220521200052 74 0 0.0 0.0 0.00 0.00 0.00 39 1017.5
20220521194543 76 0 0.0 0.0 0.00 0.00 0.00 37 1017.5
20220521193057 77 0 0.0 1.0 0.00 0.00 0.00 34 1017.4
20220521191555 79 0 0.0 0.0 0.00 0.00 0.00 34 1017.3
20220521190050 81 0 0.0 0.0 0.00 0.00 0.00 31 1017.2
20220521184538 82 0 0.0 1.0 0.00 0.00 0.00 29 1017.2
20220521183042 83 0 0.0 2.0 0.00 0.00 0.00 28 1017.1
20220521181547 84 121 1.0 3.0 0.00 0.00 0.00 27 1017.1
20220521180054 85 121 1.0 6.0 0.00 0.00 0.00 26 1017.0
20220521174550 87 121 1.0 5.0 0.00 0.00 0.00 26 1017.0
20220521173051 89 121 2.0 5.0 0.00 0.00 0.00 25 1017.0
20220521171544 89 121 2.0 9.0 0.00 0.00 0.00 25 1017.0
20220521170206 89 119 3.0 6.0 0.00 0.00 0.00 24 1017.0
20220521164606 90 120 3.0 11.0 0.00 0.00 0.00 22 1017.0
20220521163105 92 120 3.0 10.0 0.00 0.00 0.00 21 1017.0
20220521161607 92 120 4.0 15.0 0.00 0.00 0.00 21 1017.0
20220521160102 94 119 4.0 10.0 0.00 0.00 0.00 20 1017.1
20220521154548 94 119 5.0 12.0 0.00 0.00 0.00 20 1017.1
20220521153105 95 119 3.0 7.0 0.00 0.00 0.00 21 1017.3
20220521151604 96 119 3.0 10.0 0.00 0.00 0.00 20 1017.5
20220521150045 95 119 5.0 13.0 0.00 0.00 0.00 20 1017.5
20220521144550 96 119 4.0 8.0 0.00 0.00 0.00 20 1017.7
20220521143048 96 119 3.0 7.0 0.00 0.00 0.00 21 1017.8
20220521141545 96 120 4.0 8.0 0.00 0.00 0.00 21 1017.8
20220521140102 96 120 4.0 8.0 0.00 0.00 0.00 21 1018.1
20220521134600 95 120 3.0 9.0 0.00 0.00 0.00 22 1018.3
20220521133052 95 120 3.0 7.0 0.00 0.00 0.00 21 1018.7
20220521131604 94 120 3.0 13.0 0.00 0.00 0.00 24 1018.9